Time;durP1;ratioP1;P1;durP2;ratioP2;P2;SDS_P1;SDS_P2;PMS_P1;PMS_P2;Temp;Humidity;BMP_temperature;BMP_pressure;BME280_temperature;BME280_humidity;BME280_pressure;Samples;Min_cycle;Max_cycle;Signal;HPM_P1;HPM_P2
2023/02/13 00:00:01;;;;;;;9.82;4.03;;;4.70;99.90;;;;;;4975635;28;20617;-75
2023/02/13 00:02:27;;;;;;;9.75;4.60;;;4.90;99.90;;;;;;4974971;28;20039;-75
2023/02/13 00:04:53;;;;;;;10.90;5.10;;;4.70;99.90;;;;;;4975930;28;20110;-75
2023/02/13 00:07:18;;;;;;;7.82;4.22;;;4.50;99.90;;;;;;4974422;28;20145;-76
2023/02/13 00:09:44;;;;;;;9.02;3.30;;;4.50;99.90;;;;;;4958501;28;20039;-76
2023/02/13 00:12:10;;;;;;;6.93;3.50;;;4.40;99.90;;;;;;4974279;28;20394;-76
2023/02/13 00:14:38;;;;;;;8.75;3.95;;;4.30;99.90;;;;;;4974659;28;20521;-76
2023/02/13 00:17:05;;;;;;;13.75;5.15;;;4.30;99.90;;;;;;4972030;28;20030;-76
2023/02/13 00:19:31;;;;;;;9.88;4.47;;;4.20;99.90;;;;;;4966071;28;20039;-76
2023/02/13 00:21:57;;;;;;;9.52;4.93;;;4.10;99.90;;;;;;4975551;28;20039;-76
2023/02/13 00:24:22;;;;;;;10.95;4.38;;;4.10;99.90;;;;;;4974282;28;20042;-76
2023/02/13 00:26:48;;;;;;;6.25;3.38;;;4.00;99.90;;;;;;4975080;28;20745;-76
2023/02/13 00:29:14;;;;;;;13.77;5.28;;;4.00;99.90;;;;;;4952505;28;20046;-76
2023/02/13 00:31:40;;;;;;;10.07;4.93;;;4.00;99.90;;;;;;4975264;28;20109;-76
2023/02/13 00:34:05;;;;;;;10.43;4.07;;;4.10;99.90;;;;;;4956683;28;20035;-75
2023/02/13 00:36:31;;;;;;;8.25;3.90;;;4.20;99.90;;;;;;4975033;28;20062;-76
2023/02/13 00:38:57;;;;;;;7.10;3.83;;;4.20;99.90;;;;;;4974254;28;20117;-75
2023/02/13 00:41:23;;;;;;;11.55;5.35;;;4.20;99.90;;;;;;4975236;28;20410;-76
2023/02/13 00:43:49;;;;;;;10.52;4.65;;;4.30;99.90;;;;;;4974337;28;20042;-76
2023/02/13 00:46:16;;;;;;;11.95;5.22;;;4.30;99.90;;;;;;4975211;28;20035;-76
2023/02/13 00:48:42;;;;;;;8.70;4.05;;;4.40;99.90;;;;;;4957059;28;20043;-75
2023/02/13 00:51:08;;;;;;;9.88;3.38;;;4.30;99.90;;;;;;4975379;28;20085;-76
2023/02/13 00:53:36;;;;;;;7.32;4.07;;;4.40;99.90;;;;;;4974389;28;20030;-75
2023/02/13 00:56:02;;;;;;;10.45;4.00;;;4.40;99.90;;;;;;4974980;28;20111;-76
2023/02/13 00:58:28;;;;;;;9.98;3.47;;;4.40;99.90;;;;;;4974066;28;20031;-76
2023/02/13 01:00:54;;;;;;;6.70;4.30;;;4.50;99.90;;;;;;4957571;28;20433;-76
2023/02/13 01:03:20;;;;;;;11.63;4.70;;;4.50;99.90;;;;;;4974145;28;20030;-76
2023/02/13 01:05:47;;;;;;;13.57;4.47;;;4.40;99.90;;;;;;4949588;28;20127;-76
2023/02/13 01:08:14;;;;;;;6.65;3.92;;;4.40;99.90;;;;;;4955731;28;20031;-76
2023/02/13 01:10:43;;;;;;;9.52;4.85;;;4.40;99.90;;;;;;4965519;28;20038;-76
2023/02/13 01:13:09;;;;;;;15.32;5.15;;;4.50;99.90;;;;;;4956445;28;20105;-76
2023/02/13 01:15:35;;;;;;;6.97;3.60;;;4.50;99.90;;;;;;4974087;28;20023;-75
2023/02/13 01:18:02;;;;;;;10.77;3.95;;;4.40;99.90;;;;;;4939363;28;20106;-75
2023/02/13 01:20:28;;;;;;;10.20;3.97;;;4.30;99.90;;;;;;4957103;28;20132;-75
2023/02/13 01:22:56;;;;;;;12.55;4.75;;;4.30;99.90;;;;;;4973506;28;20027;-75
2023/02/13 01:25:22;;;;;;;11.23;4.18;;;4.30;99.90;;;;;;4974313;28;20057;-75
2023/02/13 01:27:48;;;;;;;14.73;4.30;;;4.20;99.90;;;;;;4973041;28;20106;-75
2023/02/13 01:30:17;;;;;;;7.88;4.00;;;3.80;99.90;;;;;;4974056;28;20118;-75
2023/02/13 01:32:44;;;;;;;12.27;4.18;;;3.70;99.90;;;;;;4956438;28;20110;-75
2023/02/13 01:35:12;;;;;;;4.18;3.03;;;3.80;99.90;;;;;;4974206;28;20031;-75
2023/02/13 01:37:38;;;;;;;8.73;3.95;;;3.70;99.90;;;;;;4955511;28;20051;-76
2023/02/13 01:40:06;;;;;;;13.73;4.63;;;3.50;99.90;;;;;;4974103;28;20085;-75
2023/02/13 01:42:34;;;;;;;11.50;4.85;;;3.40;99.90;;;;;;4955701;28;20043;-76
2023/02/13 01:45:17;;;;;;;6.63;4.03;;;3.40;99.90;;;;;;4973862;28;20031;-76
2023/02/13 01:47:47;;;;;;;12.75;3.55;;;3.40;99.90;;;;;;4973085;28;20034;-75
2023/02/13 01:50:43;;;;;;;9.85;3.95;;;3.50;99.90;;;;;;4962225;28;20055;-75
2023/02/13 01:53:49;;;;;;;10.40;5.38;;;3.50;99.90;;;;;;4972924;28;20027;-75
2023/02/13 01:56:23;;;;;;;6.40;4.03;;;3.40;99.90;;;;;;4973604;28;20065;-75
2023/02/13 01:58:54;;;;;;;17.83;5.13;;;3.40;99.90;;;;;;4972763;28;20426;-75
2023/02/13 02:01:22;;;;;;;;;;;3.40;99.90;;;;;;4970028;28;20030;-74
2023/02/13 02:03:56;;;;;;;7.47;3.55;;;3.30;99.90;;;;;;4973007;28;19914;-74
2023/02/13 02:06:36;;;;;;;8.63;3.80;;;3.10;99.90;;;;;;4956500;28;20060;-75
2023/02/13 02:09:11;;;;;;;12.95;5.85;;;3.00;99.90;;;;;;4987463;23;20046;-76
2023/02/13 02:12:13;;;;;;;8.00;4.63;;;3.00;99.90;;;;;;4967685;28;20030;-77
2023/02/13 02:14:41;;;;;;;9.30;4.88;;;3.00;99.90;;;;;;4987860;28;20045;-77
2023/02/13 02:17:07;;;;;;;9.30;4.47;;;3.00;99.90;;;;;;4976766;28;20030;-77
2023/02/13 02:20:08;;;;;;;8.43;4.32;;;3.10;99.90;;;;;;4962918;28;20093;-76
2023/02/13 02:23:09;;;;;;;6.55;3.25;;;3.00;99.90;;;;;;4940839;28;20499;-76
2023/02/13 02:26:18;;;;;;;5.47;3.40;;;2.80;99.90;;;;;;4931919;28;20050;-76
2023/02/13 02:29:16;;;;;;;8.13;4.38;;;2.80;99.90;;;;;;4972043;28;20136;-76
2023/02/13 02:32:31;;;;;;;11.27;4.30;;;2.70;99.90;;;;;;4956257;28;20054;-77
2023/02/13 02:35:28;;;;;;;10.57;3.20;;;2.70;99.90;;;;;;4935816;28;20146;-76
2023/02/13 02:38:25;;;;;;;6.18;3.08;;;2.80;99.90;;;;;;4972027;28;20033;-77
2023/02/13 02:41:40;;;;;;;9.43;4.28;;;2.80;99.90;;;;;;4954429;28;20027;-76
2023/02/13 02:44:43;;;;;;;13.65;5.22;;;2.80;99.90;;;;;;4972373;28;20041;-76
2023/02/13 02:50:31;;;;;;;9.25;4.15;;;2.50;99.90;;;;;;4972101;28;20034;-76
2023/02/13 02:53:16;;;;;;;8.70;3.45;;;2.60;99.90;;;;;;4971900;28;20110;-76
2023/02/13 02:55:49;;;;;;;6.60;2.90;;;2.30;99.90;;;;;;4955738;28;20023;-76
2023/02/13 03:07:20;;;;;;;14.63;4.07;;;2.10;99.90;;;;;;4957536;28;20237;-77
2023/02/13 03:13:20;;;;;;;6.05;3.33;;;2.20;99.90;;;;;;4957593;28;20380;-77
2023/02/13 03:22:19;;;;;;;8.40;5.70;;;2.30;99.90;;;;;;4965360;28;20034;-77
2023/02/13 03:25:06;;;;;;;7.72;3.42;;;2.00;99.90;;;;;;4950749;28;20100;-77
2023/02/13 03:31:07;;;;;;;10.20;4.65;;;1.70;99.90;;;;;;4958349;28;20051;-77
2023/02/13 03:34:03;;;;;;;6.40;3.13;;;1.70;99.90;;;;;;4955922;28;20034;-77
2023/02/13 03:40:14;;;;;;;9.43;3.83;;;1.90;99.90;;;;;;4972242;28;20085;-76
2023/02/13 03:43:07;;;;;;;5.80;4.03;;;1.90;99.90;;;;;;4971901;28;20670;-77
2023/02/13 03:45:51;;;;;;;8.10;4.82;;;2.00;99.90;;;;;;4956523;28;20085;-76
2023/02/13 03:51:15;;;;;;;10.48;3.80;;;2.00;99.90;;;;;;4968682;28;20034;-76
2023/02/13 03:53:43;;;;;;;10.32;4.55;;;2.10;99.90;;;;;;4923847;28;20026;-76
2023/02/13 03:59:15;;;;;;;11.13;5.15;;;2.10;99.90;;;;;;4957234;28;20038;-77
2023/02/13 04:01:57;;;;;;;11.40;4.22;;;2.10;99.90;;;;;;4971248;28;20035;-77
2023/02/13 04:04:53;;;;;;;11.88;4.55;;;2.10;99.90;;;;;;4955699;28;20482;-77
2023/02/13 04:07:30;;;;;;;6.97;4.22;;;2.00;99.90;;;;;;4970784;28;20371;-76
2023/02/13 04:10:04;;;;;;;13.20;4.50;;;2.00;99.90;;;;;;4955680;28;20062;-76
2023/02/13 04:12:40;;;;;;;17.40;5.15;;;2.00;99.90;;;;;;4970948;28;20469;-77
2023/02/13 04:15:14;;;;;;;7.90;4.53;;;1.80;99.90;;;;;;4971482;28;20043;-76
2023/02/13 04:17:50;;;;;;;10.23;4.68;;;1.80;99.90;;;;;;4954448;28;20048;-76
2023/02/13 04:20:17;;;;;;;10.25;4.75;;;1.70;99.90;;;;;;4971500;28;20058;-76
2023/02/13 04:22:45;;;;;;;12.70;4.20;;;1.70;99.90;;;;;;4931566;28;20516;-76
2023/02/13 04:25:15;;;;;;;7.72;2.85;;;1.60;99.90;;;;;;4954786;28;20046;-77
2023/02/13 04:27:41;;;;;;;6.38;3.17;;;1.40;99.90;;;;;;4940620;28;20031;-77
2023/02/13 04:30:08;;;;;;;4.85;3.03;;;1.40;99.90;;;;;;4971204;28;20038;-77
2023/02/13 04:32:34;;;;;;;7.85;4.38;;;1.30;99.90;;;;;;4953808;28;20018;-77
2023/02/13 04:34:59;;;;;;;11.93;3.78;;;1.30;99.90;;;;;;4938049;28;20126;-77
2023/02/13 04:37:25;;;;;;;6.63;3.35;;;1.30;99.90;;;;;;4947318;28;20539;-77
2023/02/13 04:39:51;;;;;;;12.32;3.85;;;1.20;99.90;;;;;;4971214;28;20038;-77
2023/02/13 04:42:17;;;;;;;4.30;3.40;;;1.20;99.90;;;;;;4970522;28;20586;-77
2023/02/13 04:44:42;;;;;;;4.78;2.47;;;1.20;99.90;;;;;;4973637;28;20398;-77
2023/02/13 04:47:08;;;;;;;6.18;2.88;;;1.20;99.90;;;;;;4973839;28;20397;-76
2023/02/13 04:49:34;;;;;;;9.10;3.58;;;1.10;99.90;;;;;;4957370;28;20031;-77
2023/02/13 04:52:00;;;;;;;4.90;2.85;;;1.10;99.90;;;;;;4950508;29;20035;-77
2023/02/13 04:54:25;;;;;;;7.93;4.18;;;1.10;99.90;;;;;;4967407;28;20018;-77
2023/02/13 04:56:51;;;;;;;7.05;2.75;;;1.10;99.90;;;;;;4973958;28;20500;-77
2023/02/13 04:59:17;;;;;;;4.97;3.00;;;1.10;99.90;;;;;;4957233;28;20034;-77
2023/02/13 05:01:42;;;;;;;8.90;2.97;;;1.10;99.90;;;;;;4956700;28;20081;-77
2023/02/13 05:04:10;;;;;;;8.32;4.55;;;1.10;99.90;;;;;;4974710;28;20098;-78
2023/02/13 05:06:37;;;;;;;7.55;4.10;;;1.10;99.90;;;;;;4953238;29;20114;-77
2023/02/13 05:09:03;;;;;;;8.43;4.10;;;1.10;99.90;;;;;;4971869;28;20043;-77
2023/02/13 05:11:28;;;;;;;7.55;3.10;;;1.10;99.90;;;;;;4973828;28;20101;-77
2023/02/13 05:13:54;;;;;;;4.35;2.58;;;1.10;99.90;;;;;;4974129;28;20038;-78
2023/02/13 05:16:20;;;;;;;5.45;3.53;;;1.10;99.90;;;;;;4973465;28;20363;-78
2023/02/13 05:18:46;;;;;;;6.88;3.30;;;1.10;99.90;;;;;;4956892;28;20526;-77
2023/02/13 05:23:56;;;;;;;5.90;3.67;;;0.90;99.90;;;;;;4971832;28;20037;-75
2023/02/13 05:26:21;;;;;;;8.45;4.05;;;0.90;99.90;;;;;;4974526;28;20084;-76
2023/02/13 05:31:31;;;;;;;11.50;4.32;;;0.10;99.90;;;;;;4947978;28;20520;-76
2023/02/13 05:33:57;;;;;;;27.83;12.93;;;0.10;99.90;;;;;;4976141;28;20126;-77
2023/02/13 05:36:23;;;;;;;38.53;15.07;;;0.70;99.90;;;;;;4972698;28;20049;-75
2023/02/13 05:38:48;;;;;;;16.30;7.15;;;0.70;99.90;;;;;;4973774;28;20062;-75
2023/02/13 05:41:14;;;;;;;22.75;7.30;;;0.60;99.90;;;;;;4973056;28;20039;-78
2023/02/13 05:43:40;;;;;;;21.35;9.82;;;0.60;99.90;;;;;;4971570;28;20105;-76
2023/02/13 05:46:08;;;;;;;10.45;6.63;;;0.70;99.90;;;;;;4972235;28;20034;-76
2023/02/13 05:48:34;;;;;;;16.10;6.72;;;0.80;99.90;;;;;;4964332;28;20494;-76
2023/02/13 05:51:00;;;;;;;12.98;5.63;;;0.80;99.90;;;;;;4950830;28;20117;-76
2023/02/13 05:53:28;;;;;;;17.60;9.02;;;0.60;99.90;;;;;;4938566;28;20081;-76
2023/02/13 05:55:54;;;;;;;12.77;7.90;;;0.70;99.90;;;;;;4973068;28;20037;-76
2023/02/13 05:58:20;;;;;;;9.27;4.78;;;0.70;99.90;;;;;;4955034;28;20058;-77
2023/02/13 06:00:47;;;;;;;5.88;4.38;;;0.70;99.90;;;;;;4955979;28;20035;-77
2023/02/13 06:03:13;;;;;;;16.27;4.13;;;0.70;99.90;;;;;;4946526;28;20287;-76
2023/02/13 06:05:39;;;;;;;19.65;9.93;;;0.70;99.90;;;;;;4973085;28;20089;-77
2023/02/13 06:08:05;;;;;;;16.52;7.28;;;0.70;99.90;;;;;;4954707;28;20026;-76
2023/02/13 06:10:31;;;;;;;29.05;11.52;;;0.70;99.90;;;;;;4972362;28;20614;-75
2023/02/13 06:12:57;;;;;;;13.10;6.25;;;0.70;99.90;;;;;;4972100;28;20031;-75
2023/02/13 06:15:23;;;;;;;10.90;4.95;;;0.70;99.90;;;;;;4971522;28;20110;-76
2023/02/13 06:17:48;;;;;;;8.20;4.60;;;0.70;99.90;;;;;;4953893;28;20038;-76
2023/02/13 06:20:14;;;;;;;12.25;6.55;;;0.60;99.90;;;;;;4972927;28;20070;-76
2023/02/13 06:22:40;;;;;;;11.20;4.70;;;0.60;99.90;;;;;;4972035;28;20077;-77
2023/02/13 06:25:06;;;;;;;12.57;6.35;;;0.60;99.90;;;;;;4971315;28;20031;-76
2023/02/13 06:27:32;;;;;;;13.35;5.75;;;0.50;99.90;;;;;;4969228;28;20557;-76
2023/02/13 06:29:57;;;;;;;6.95;3.17;;;0.40;99.90;;;;;;4972517;28;20066;-76
2023/02/13 06:32:23;;;;;;;7.47;3.92;;;0.40;99.90;;;;;;4970917;28;20038;-76
2023/02/13 06:34:49;;;;;;;20.48;5.57;;;0.40;99.90;;;;;;4955296;28;20423;-76
2023/02/13 06:37:14;;;;;;;12.90;4.65;;;0.40;99.90;;;;;;4971026;28;20026;-76
2023/02/13 06:39:41;;;;;;;13.77;4.47;;;0.40;99.90;;;;;;4970973;28;20046;-76
2023/02/13 06:42:07;;;;;;;7.90;5.22;;;0.40;99.90;;;;;;4954975;28;20026;-78
2023/02/13 06:44:33;;;;;;;9.52;3.63;;;0.40;99.90;;;;;;4967337;28;20046;-77
2023/02/13 06:46:58;;;;;;;9.85;4.38;;;0.40;99.90;;;;;;4968203;28;20031;-77
2023/02/13 06:49:24;;;;;;;9.30;5.65;;;0.50;99.90;;;;;;4972331;28;20034;-77
2023/02/13 06:51:50;;;;;;;8.68;4.72;;;0.50;99.90;;;;;;4971633;28;20058;-77
2023/02/13 06:54:15;;;;;;;7.75;3.85;;;0.60;99.90;;;;;;4967887;28;20114;-75
2023/02/13 06:56:41;;;;;;;9.27;4.50;;;0.60;99.90;;;;;;4963486;28;20950;-76
2023/02/13 06:59:07;;;;;;;10.02;4.90;;;0.60;99.90;;;;;;4968338;28;20031;-69
2023/02/13 07:01:33;;;;;;;12.82;5.35;;;0.50;99.90;;;;;;4971378;28;20049;-67
2023/02/13 07:03:58;;;;;;;7.70;4.53;;;0.50;99.90;;;;;;4968877;28;20654;-74
2023/02/13 07:06:24;;;;;;;11.15;4.43;;;0.60;99.90;;;;;;4953780;28;20386;-73
2023/02/13 07:08:54;;;;;;;8.15;3.63;;;0.60;99.90;;;;;;4971591;28;20042;-72
2023/02/13 07:11:22;;;;;;;8.75;5.03;;;0.60;99.90;;;;;;4971689;28;20047;-74
2023/02/13 07:13:48;;;;;;;14.93;6.68;;;0.60;99.90;;;;;;4954423;28;20512;-74
2023/02/13 07:16:15;;;;;;;16.55;4.10;;;0.60;99.90;;;;;;4971970;28;20058;-74
2023/02/13 07:18:40;;;;;;;6.60;3.67;;;0.50;99.90;;;;;;4953396;28;20102;-73
2023/02/13 07:21:07;;;;;;;10.10;4.70;;;0.60;99.90;;;;;;4970866;28;20034;-74
2023/02/13 07:23:33;;;;;;;11.45;5.15;;;0.60;99.90;;;;;;4954147;28;20058;-74
2023/02/13 07:26:00;;;;;;;15.55;6.30;;;0.70;99.90;;;;;;4948321;28;20031;-75
2023/02/13 07:28:27;;;;;;;10.32;5.60;;;0.80;99.90;;;;;;4972544;28;20050;-74
2023/02/13 07:30:53;;;;;;;15.00;5.82;;;0.80;99.90;;;;;;4973394;28;20039;-73
2023/02/13 07:33:19;;;;;;;12.07;5.78;;;0.80;99.90;;;;;;4953391;28;20057;-73
2023/02/13 07:35:50;;;;;;;9.98;6.32;;;0.80;99.90;;;;;;4971671;28;20055;-73
2023/02/13 07:38:17;;;;;;;19.90;7.65;;;1.00;99.90;;;;;;4970440;28;20030;-73
2023/02/13 07:40:43;;;;;;;13.18;5.55;;;1.00;99.90;;;;;;4952792;28;20031;-73
2023/02/13 07:43:09;;;;;;;9.75;5.25;;;1.10;99.90;;;;;;4971870;28;20037;-76
2023/02/13 07:45:35;;;;;;;13.60;5.30;;;1.10;99.90;;;;;;4953871;28;22222;-78
2023/02/13 07:48:01;;;;;;;12.13;6.45;;;1.10;99.90;;;;;;4971262;28;20430;-74
2023/02/13 07:50:27;;;;;;;17.77;5.03;;;1.20;99.90;;;;;;4953307;28;20683;-75
2023/02/13 07:52:58;;;;;;;14.65;5.50;;;1.20;99.90;;;;;;4954247;28;20035;-73
2023/02/13 07:55:25;;;;;;;;;;;1.30;99.90;;;;;;4954367;28;20058;-74
2023/02/13 07:57:51;;;;;;;9.27;4.57;;;1.40;99.90;;;;;;4966613;28;20358;-82
2023/02/13 08:00:18;;;;;;;10.75;6.00;;;1.50;99.90;;;;;;4970578;28;20033;-73
2023/02/13 08:02:44;;;;;;;24.42;5.78;;;1.60;99.90;;;;;;4970998;28;20054;-74
2023/02/13 08:05:11;;;;;;;12.85;5.28;;;1.60;99.90;;;;;;4971645;28;20102;-73
2023/02/13 08:07:36;;;;;;;17.75;8.20;;;1.70;99.90;;;;;;4986039;23;20030;-70
2023/02/13 08:12:52;;;;;;;14.75;7.45;;;1.90;99.90;;;;;;4975614;28;20532;-73
2023/02/13 08:15:18;;;;;;;10.15;5.97;;;2.00;99.90;;;;;;4970305;28;20085;-73
2023/02/13 08:17:44;;;;;;;12.05;6.43;;;2.10;99.90;;;;;;4982577;28;20031;-74
2023/02/13 08:20:11;;;;;;;23.00;7.85;;;2.10;99.90;;;;;;4949048;28;20537;-74
2023/02/13 08:22:38;;;;;;;13.88;6.43;;;2.20;99.90;;;;;;4964838;28;20130;-74
2023/02/13 08:25:05;;;;;;;12.40;7.18;;;2.30;99.90;;;;;;4957976;28;20054;-74
2023/02/13 08:27:32;;;;;;;14.93;7.43;;;2.40;99.90;;;;;;4959785;28;20058;-74
2023/02/13 08:29:58;;;;;;;21.88;8.00;;;2.50;99.90;;;;;;4968503;28;20086;-74
2023/02/13 08:32:25;;;;;;;11.70;6.57;;;2.60;99.90;;;;;;4967857;28;20093;-75
2023/02/13 08:34:51;;;;;;;13.85;7.35;;;2.80;99.90;;;;;;4962194;28;20046;-74
2023/02/13 08:37:17;;;;;;;13.13;7.90;;;2.80;99.90;;;;;;4993097;28;20041;-74
2023/02/13 08:39:43;;;;;;;16.38;7.78;;;2.90;99.90;;;;;;4969484;28;20031;-74
2023/02/13 08:42:09;;;;;;;13.75;7.00;;;3.00;99.90;;;;;;4975031;28;20026;-74
2023/02/13 08:44:36;;;;;;;11.48;6.95;;;3.10;99.90;;;;;;4958788;28;20035;-74
2023/02/13 08:47:02;;;;;;;18.95;7.40;;;3.20;99.90;;;;;;4906247;28;20884;-74
2023/02/13 08:49:32;;;;;;;17.17;6.30;;;3.30;99.90;;;;;;4918061;28;20073;-74
2023/02/13 08:51:59;;;;;;;16.15;7.72;;;3.40;99.90;;;;;;4973609;28;20053;-74
2023/02/13 08:54:29;;;;;;;13.13;7.20;;;3.50;99.90;;;;;;4971842;28;20654;-75
2023/02/13 08:56:55;;;;;;;20.73;7.63;;;3.60;99.90;;;;;;4990367;28;20023;-74
2023/02/13 08:59:21;;;;;;;21.77;7.95;;;3.60;99.90;;;;;;4989814;28;20049;-74
2023/02/13 09:01:47;;;;;;;14.43;6.97;;;3.80;99.90;;;;;;4989142;28;20038;-74
2023/02/13 09:04:17;;;;;;;18.65;9.13;;;4.00;99.90;;;;;;4971560;28;20521;-72
2023/02/13 09:06:43;;;;;;;25.40;8.80;;;4.10;99.90;;;;;;4971376;28;20066;-74
2023/02/13 09:09:10;;;;;;;9.35;5.50;;;4.20;99.90;;;;;;4971522;28;20058;-71
2023/02/13 09:11:35;;;;;;;16.77;7.28;;;4.30;99.90;;;;;;4987611;28;20185;-73
2023/02/13 09:14:02;;;;;;;18.15;7.88;;;4.50;99.90;;;;;;4992217;28;20058;-73
2023/02/13 09:16:27;;;;;;;19.13;8.40;;;4.50;99.90;;;;;;4969261;28;20030;-73
2023/02/13 09:18:53;;;;;;;16.77;8.05;;;4.60;99.90;;;;;;4990460;28;20038;-73
2023/02/13 09:21:22;;;;;;;17.40;7.57;;;4.70;99.90;;;;;;4964127;28;20031;-73
2023/02/13 09:23:49;;;;;;;21.67;8.13;;;4.70;99.90;;;;;;4978322;28;20030;-72
2023/02/13 09:26:17;;;;;;;18.20;7.25;;;4.90;99.90;;;;;;4978702;28;20077;-73
2023/02/13 09:28:43;;;;;;;16.45;7.03;;;5.00;99.90;;;;;;4991196;28;20046;-73
2023/02/13 09:31:20;;;;;;;22.25;8.52;;;5.10;99.90;;;;;;4967045;28;20395;-72
2023/02/13 09:33:47;;;;;;;16.52;8.00;;;5.20;99.90;;;;;;4974897;28;20048;-73
2023/02/13 09:36:18;;;;;;;13.50;6.63;;;5.40;99.90;;;;;;4984915;28;20035;-73
2023/02/13 09:38:46;;;;;;;19.52;7.55;;;5.60;99.90;;;;;;4968536;28;20046;-74
2023/02/13 09:41:18;;;;;;;14.15;7.93;;;5.70;99.90;;;;;;4965342;28;20039;-67
2023/02/13 09:43:59;;;;;;;16.50;7.88;;;5.90;99.90;;;;;;4952808;28;20391;-73
2023/02/13 09:46:33;;;;;;;31.10;8.95;;;6.10;99.90;;;;;;4977068;28;20433;-73
2023/02/13 09:49:07;;;;;;;12.70;7.63;;;6.40;99.90;;;;;;4974631;28;20038;-72
2023/02/13 09:51:33;;;;;;;15.48;7.78;;;6.50;99.90;;;;;;4986342;28;20030;-73
2023/02/13 09:54:06;;;;;;;14.27;7.82;;;6.70;99.90;;;;;;4966563;28;20085;-73
2023/02/13 09:56:48;;;;;;;20.27;7.50;;;6.90;99.90;;;;;;4968804;28;20032;-73
2023/02/13 09:59:31;;;;;;;25.33;7.35;;;7.00;99.90;;;;;;4989687;28;20030;-72
2023/02/13 10:02:18;;;;;;;16.70;6.95;;;6.90;99.90;;;;;;4989959;28;20038;-72
2023/02/13 10:05:20;;;;;;;14.95;7.05;;;7.30;99.90;;;;;;4951272;28;20035;-73
2023/02/13 10:08:10;;;;;;;16.67;7.85;;;7.40;99.90;;;;;;4963146;28;20101;-72
2023/02/13 10:10:51;;;;;;;14.60;8.13;;;7.50;99.90;;;;;;4969515;28;20054;-73
2023/02/13 10:13:44;;;;;;;21.10;6.90;;;7.60;99.90;;;;;;4981517;28;20041;-73
2023/02/13 10:16:42;;;;;;;14.50;7.43;;;7.90;99.90;;;;;;4967094;28;20035;-70
2023/02/13 10:19:31;;;;;;;18.88;7.43;;;8.40;99.90;;;;;;4989704;28;20034;-72
2023/02/13 10:22:15;;;;;;;17.55;8.70;;;8.80;99.90;;;;;;4974042;28;20032;-72
2023/02/13 10:25:07;;;;;;;16.52;7.95;;;10.50;99.90;;;;;;4965189;28;20034;-72
2023/02/13 10:27:45;;;;;;;16.77;8.55;;;10.10;99.90;;;;;;4973624;28;20038;-72
2023/02/13 10:30:22;;;;;;;14.52;7.20;;;11.30;99.90;;;;;;4958730;28;20031;-73
2023/02/13 10:33:18;;;;;;;17.10;6.43;;;11.00;99.90;;;;;;4974280;28;20080;-72
2023/02/13 10:35:59;;;;;;;14.93;6.25;;;10.30;99.90;;;;;;4986891;28;20026;-73
2023/02/13 10:38:32;;;;;;;14.43;6.93;;;10.20;99.90;;;;;;4990863;28;20034;-73
2023/02/13 10:41:29;;;;;;;17.80;7.32;;;10.10;99.90;;;;;;4966326;28;20062;-69
2023/02/13 10:44:19;;;;;;;20.67;7.18;;;10.50;99.90;;;;;;4991538;28;20489;-74
2023/02/13 10:47:02;;;;;;;21.67;7.47;;;10.60;99.90;;;;;;4969166;28;20026;-72
2023/02/13 10:50:10;;;;;;;17.60;7.55;;;10.00;99.90;;;;;;4970230;28;20050;-72
2023/02/13 10:52:55;;;;;;;18.10;7.00;;;10.20;99.90;;;;;;4958242;28;20045;-73
2023/02/13 10:55:56;;;;;;;22.08;7.38;;;11.50;99.90;;;;;;4975834;28;20026;-74
2023/02/13 10:59:05;;;;;;;17.48;7.25;;;12.10;99.90;;;;;;4968467;28;20030;-73
2023/02/13 11:01:59;;;;;;;21.35;8.10;;;12.60;99.90;;;;;;4957486;28;20451;-73
2023/02/13 11:04:25;;;;;;;24.00;7.55;;;13.10;99.90;;;;;;4961021;28;20034;-74
2023/02/13 11:07:04;;;;;;;24.75;7.47;;;15.20;99.80;;;;;;4986732;28;20041;-73
2023/02/13 11:09:38;;;;;;;22.83;7.63;;;15.50;97.40;;;;;;4979795;28;20031;-74
2023/02/13 11:12:28;;;;;;;16.35;7.57;;;16.00;95.70;;;;;;4969929;28;20426;-73
2023/02/13 11:15:18;;;;;;;21.00;8.20;;;14.30;99.20;;;;;;4979971;28;20038;-69
2023/02/13 11:17:45;;;;;;;23.55;8.63;;;16.00;95.90;;;;;;4974847;28;20031;-71
2023/02/13 11:20:34;;;;;;;19.30;8.35;;;15.30;95.30;;;;;;4965862;28;20035;-70
2023/02/13 11:23:28;;;;;;;17.33;6.93;;;15.20;95.30;;;;;;4967629;28;20027;-69
2023/02/13 11:26:31;;;;;;;17.00;7.60;;;16.20;93.70;;;;;;4979683;28;20035;-68
2023/02/13 11:29:00;;;;;;;11.68;6.63;;;13.60;97.60;;;;;;4983366;28;20053;-69
2023/02/13 11:31:35;;;;;;;18.40;7.68;;;14.30;98.00;;;;;;4983898;28;20027;-70
2023/02/13 11:34:20;;;;;;;15.13;6.78;;;16.50;95.10;;;;;;4989394;28;20041;-70
2023/02/13 11:36:52;;;;;;;13.60;6.65;;;13.80;96.70;;;;;;4982313;28;20149;-71
2023/02/13 11:39:22;;;;;;;18.25;6.70;;;13.00;99.70;;;;;;4987081;28;20117;-71
2023/02/13 11:41:51;;;;;;;13.80;6.43;;;15.20;97.60;;;;;;4958137;28;20699;-71
2023/02/13 11:44:30;;;;;;;15.00;6.47;;;14.30;96.90;;;;;;4949193;28;20030;-69
2023/02/13 11:46:59;;;;;;;14.07;6.13;;;14.00;98.80;;;;;;4958109;28;20026;-68
2023/02/13 11:49:35;;;;;;;14.60;6.35;;;15.20;97.20;;;;;;4985791;28;20085;-68
2023/02/13 11:52:03;;;;;;;15.55;6.38;;;16.50;93.60;;;;;;4988225;28;20105;-68
2023/02/13 11:54:41;;;;;;;17.70;6.78;;;16.30;93.80;;;;;;4971466;28;20030;-68
2023/02/13 11:57:28;;;;;;;14.27;6.15;;;15.30;94.60;;;;;;4977915;28;20101;-68
2023/02/13 11:59:55;;;;;;;13.63;6.78;;;16.50;92.10;;;;;;4985534;28;20458;-68
2023/02/13 12:02:30;;;;;;;13.80;6.43;;;14.90;94.70;;;;;;4977718;28;20045;-68
2023/02/13 12:05:26;;;;;;;14.30;6.50;;;15.40;93.70;;;;;;4987863;28;20030;-68
2023/02/13 12:08:00;;;;;;;14.05;6.65;;;14.60;94.30;;;;;;4978676;28;20576;-68
2023/02/13 12:10:35;;;;;;;11.77;5.75;;;14.30;96.00;;;;;;4975973;28;20038;-68
2023/02/13 12:13:26;;;;;;;11.73;5.50;;;15.20;95.80;;;;;;4945863;28;20109;-68
2023/02/13 12:16:01;;;;;;;15.25;6.18;;;17.30;91.80;;;;;;4969316;28;20061;-68
2023/02/13 12:18:45;;;;;;;12.60;5.70;;;15.20;92.70;;;;;;4969820;28;20030;-68
2023/02/13 12:21:29;;;;;;;13.50;6.13;;;15.10;93.30;;;;;;4988970;28;20576;-68
2023/02/13 12:24:41;;;;;;;16.80;5.85;;;14.50;94.90;;;;;;4972176;28;20053;-68
2023/02/13 12:27:27;;;;;;;16.42;6.45;;;14.20;96.30;;;;;;4994959;28;20034;-68
2023/02/13 12:30:23;;;;;;;19.90;7.00;;;15.50;95.10;;;;;;4985458;28;20126;-68
2023/02/13 12:33:24;;;;;;;15.38;5.65;;;15.40;93.30;;;;;;4981417;28;20501;-68
2023/02/13 12:36:38;;;;;;;18.92;6.38;;;17.50;91.80;;;;;;4972169;28;20437;-68
2023/02/13 12:39:30;;;;;;;13.15;5.95;;;17.10;91.50;;;;;;4988991;28;20042;-68
2023/02/13 12:42:16;;;;;;;17.58;6.80;;;20.70;81.20;;;;;;4978727;28;20070;-69
2023/02/13 12:45:19;;;;;;;18.05;6.10;;;18.90;79.90;;;;;;4990352;28;20046;-69
2023/02/13 12:47:59;;;;;;;14.50;6.60;;;16.80;86.20;;;;;;4980484;28;20453;-67
2023/02/13 12:50:39;;;;;;;13.90;6.68;;;16.30;90.70;;;;;;4975389;28;20409;-67
2023/02/13 12:53:52;;;;;;;14.63;6.60;;;15.30;93.10;;;;;;4963209;28;20026;-67
2023/02/13 12:56:42;;;;;;;25.45;6.85;;;16.60;92.40;;;;;;4972423;28;20058;-68
2023/02/13 12:59:57;;;;;;;13.63;6.32;;;19.20;86.00;;;;;;4993860;28;20049;-68
2023/02/13 13:02:53;;;;;;;13.55;6.22;;;15.70;90.70;;;;;;4995551;28;20034;-68
2023/02/13 13:05:57;;;;;;;18.20;7.00;;;15.70;92.30;;;;;;4985287;28;20030;-68
2023/02/13 13:09:20;;;;;;;18.23;6.68;;;16.40;91.00;;;;;;4992561;28;20040;-67
2023/02/13 13:12:13;;;;;;;12.75;6.13;;;18.10;85.00;;;;;;4989226;28;20053;-67
2023/02/13 13:14:53;;;;;;;20.38;7.10;;;16.70;88.00;;;;;;4986880;28;20027;-67
2023/02/13 13:17:47;;;;;;;17.80;7.30;;;16.60;89.80;;;;;;4992374;28;20479;-67
2023/02/13 13:20:53;;;;;;;28.20;8.63;;;18.10;88.60;;;;;;4984443;28;20058;-67
2023/02/13 13:23:48;;;;;;;17.02;6.82;;;18.60;86.00;;;;;;4989266;28;20034;-68
2023/02/13 13:26:39;;;;;;;17.25;6.68;;;17.70;83.10;;;;;;4965862;28;20050;-67
2023/02/13 13:29:47;;;;;;;16.75;7.53;;;16.90;89.40;;;;;;4975284;28;20034;-67
2023/02/13 13:32:20;;;;;;;14.48;6.53;;;16.00;90.80;;;;;;4949034;28;20621;-67
2023/02/13 13:34:46;;;;;;;18.13;8.48;;;16.80;90.60;;;;;;4967222;28;20109;-67
2023/02/13 13:37:31;;;;;;;15.52;7.25;;;16.70;90.60;;;;;;4974017;28;20130;-68
2023/02/13 13:40:17;;;;;;;15.93;7.75;;;16.50;87.60;;;;;;4986232;28;20145;-67
2023/02/13 13:43:20;;;;;;;20.58;6.70;;;16.00;91.10;;;;;;4984675;28;20579;-68
2023/02/13 13:46:35;;;;;;;17.95;7.05;;;17.90;88.10;;;;;;4974848;28;20080;-68
2023/02/13 13:49:36;;;;;;;12.23;6.40;;;17.60;90.00;;;;;;4990122;28;20058;-68
2023/02/13 13:52:23;;;;;;;14.23;7.25;;;16.00;91.50;;;;;;4973129;28;20031;-68
2023/02/13 13:54:53;;;;;;;24.58;7.00;;;16.70;91.60;;;;;;4992232;28;20486;-68
2023/02/13 13:57:23;;;;;;;14.18;6.93;;;16.80;90.50;;;;;;4975297;28;20055;-67
2023/02/13 14:00:21;;;;;;;13.30;6.80;;;16.70;90.50;;;;;;4992132;28;20042;-67
2023/02/13 14:03:10;;;;;;;16.38;8.18;;;16.10;91.60;;;;;;4976019;28;20030;-67
2023/02/13 14:06:08;;;;;;;32.05;11.95;;;16.40;92.40;;;;;;4977373;28;20030;-67
2023/02/13 14:08:40;;;;;;;20.75;8.27;;;16.50;91.50;;;;;;4978726;23;20054;-65
2023/02/13 14:11:30;;;;;;;19.15;6.90;;;16.10;91.50;;;;;;5011327;28;20038;-64